Time;durP1;ratioP1;P1;durP2;ratioP2;P2;SDS_P1;SDS_P2;PMS_P1;PMS_P2;Temp;Humidity;BMP_temperature;BMP_pressure;BME280_temperature;BME280_humidity;BME280_pressure;Samples;Min_cycle;Max_cycle;Signal;HPM_P1;HPM_P2
2021/06/02 00:01:49;;;;;;;0.40;0.30;;;;;;;11.57;57.32;99667.24;1763892;79;20937;-56
2021/06/02 00:04:16;;;;;;;;;;;;;;;11.60;57.25;99677.37;1771035;79;21089;-58
2021/06/02 00:06:43;;;;;;;1.77;0.40;;;;;;;11.60;56.88;99680.06;1746956;79;21143;-57
2021/06/02 00:09:09;;;;;;;1.53;0.43;;;;;;;11.61;57.05;99672.38;1763684;79;21652;-54
2021/06/02 00:11:36;;;;;;;2.77;0.30;;;;;;;11.61;57.08;99669.67;1765623;79;21637;-53
2021/06/02 00:14:04;;;;;;;1.37;0.30;;;;;;;11.63;57.14;99669.60;1768984;79;20950;-57
2021/06/02 00:16:30;;;;;;;0.72;0.33;;;;;;;11.63;57.08;99661.04;1767846;79;21469;-57
2021/06/02 00:18:58;;;;;;;1.63;0.30;;;;;;;11.65;56.94;99667.70;1765483;79;22354;-58
2021/06/02 00:21:25;;;;;;;1.85;0.30;;;;;;;11.64;57.03;99664.13;1763945;79;21065;-58
2021/06/02 00:23:53;;;;;;;0.60;0.30;;;;;;;11.63;56.97;99652.08;1767898;79;21033;-57
2021/06/02 00:26:20;;;;;;;2.98;0.68;;;;;;;11.63;56.78;99662.38;1763645;79;21064;-56
2021/06/02 00:28:47;;;;;;;2.07;0.30;;;;;;;11.64;57.00;99660.09;1764132;79;21134;-57
2021/06/02 00:31:13;;;;;;;1.17;0.30;;;;;;;11.64;57.03;99660.56;1766304;79;20968;-57
2021/06/02 00:33:40;;;;;;;2.20;0.30;;;;;;;11.64;56.92;99657.39;1761831;79;21139;-54
2021/06/02 00:36:06;;;;;;;1.57;0.40;;;;;;;11.63;56.76;99657.47;1762826;79;21092;-58
2021/06/02 00:38:34;;;;;;;1.43;0.43;;;;;;;11.62;56.86;99647.63;1764532;79;21064;-57
2021/06/02 00:41:00;;;;;;;0.70;0.30;;;;;;;11.60;56.98;99655.80;1769590;79;21482;-54
2021/06/02 00:43:28;;;;;;;2.85;0.40;;;;;;;11.59;56.87;99648.66;1692813;79;21172;-58
2021/06/02 00:45:54;;;;;;;1.52;0.60;;;;;;;11.59;57.01;99643.74;1720390;79;21053;-53
2021/06/02 00:48:20;;;;;;;0.95;0.30;;;;;;;11.58;56.98;99646.04;1762880;79;21057;-58
2021/06/02 00:50:49;;;;;;;0.70;0.23;;;;;;;11.57;56.87;99638.94;1766617;78;21036;-56
2021/06/02 00:53:16;;;;;;;1.40;0.50;;;;;;;11.55;57.08;99645.75;1767952;78;21134;-55
2021/06/02 00:55:43;;;;;;;0.60;0.30;;;;;;;11.54;57.06;99645.83;1770110;78;21478;-56
2021/06/02 00:58:13;;;;;;;4.45;0.30;;;;;;;11.53;57.11;99642.73;1768371;78;21463;-55
2021/06/02 01:00:41;;;;;;;2.00;0.50;;;;;;;11.51;57.08;99636.55;1765709;78;21080;-53
2021/06/02 01:03:08;;;;;;;1.97;0.30;;;;;;;11.48;57.02;99640.30;1766902;78;21485;-55
2021/06/02 01:05:34;;;;;;;1.50;0.40;;;;;;;11.47;57.25;99629.59;1767182;78;21433;-54
2021/06/02 01:08:03;;;;;;;1.73;0.40;;;;;;;11.48;57.26;99635.39;1768501;78;21887;-56
2021/06/02 01:10:29;;;;;;;1.00;0.40;;;;;;;11.48;57.27;99632.69;1766703;78;21413;-54
2021/06/02 01:12:59;;;;;;;2.95;0.40;;;;;;;11.47;57.30;99633.17;1767589;78;21036;-58
2021/06/02 01:15:27;;;;;;;0.57;0.35;;;;;;;11.46;57.31;99625.16;1766806;78;21061;-56
2021/06/02 01:17:53;;;;;;;3.45;0.80;;;;;;;11.44;57.38;99621.66;1767339;78;21733;-55
2021/06/02 01:20:20;;;;;;;1.40;0.40;;;;;;;11.45;57.39;99627.45;1766689;78;20965;-53
2021/06/02 01:22:47;;;;;;;0.70;0.50;;;;;;;11.44;57.22;99625.23;1769469;78;21047;-56
2021/06/02 01:25:17;;;;;;;2.67;0.50;;;;;;;11.44;57.43;99628.41;1770013;78;21457;-54
2021/06/02 01:27:46;;;;;;;1.02;0.70;;;;;;;11.44;57.55;99612.23;1771600;78;21087;-53
2021/06/02 01:30:17;;;;;;;2.97;0.40;;;;;;;11.43;57.57;99625.31;1769963;78;20874;-56
2021/06/02 01:33:12;;;;;;;1.47;0.40;;;;;;;11.43;57.73;99625.31;1772592;78;21150;-52
2021/06/02 01:35:54;;;;;;;1.07;0.30;;;;;;;11.42;57.68;99634.34;1769807;78;22250;-55
2021/06/02 01:38:55;;;;;;;1.73;0.40;;;;;;;11.40;57.84;99632.23;1769139;78;21064;-56
2021/06/02 01:41:34;;;;;;;0.73;0.33;;;;;;;11.37;57.91;99632.78;1767860;78;21090;-57
2021/06/02 01:44:30;;;;;;;2.20;0.43;;;;;;;11.38;58.09;99637.22;1768196;78;21011;-54
2021/06/02 01:47:31;;;;;;;0.90;0.30;;;;;;;11.37;58.02;99638.17;1767320;78;21515;-53
2021/06/02 01:50:28;;;;;;;1.80;0.40;;;;;;;11.35;58.06;99640.55;1768571;78;21109;-52
2021/06/02 01:53:28;;;;;;;1.70;0.40;;;;;;;11.33;58.29;99640.63;1767741;78;21076;-52
2021/06/02 01:56:53;;;;;;;1.47;0.47;;;;;;;11.34;58.29;99634.76;1768297;78;21069;-51
2021/06/02 01:59:54;;;;;;;0.70;0.40;;;;;;;11.32;58.42;99638.00;1764884;78;21115;-56
2021/06/02 02:02:59;;;;;;;2.83;0.37;;;;;;;11.30;58.39;99634.06;1767311;78;21784;-51
2021/06/02 02:05:41;;;;;;;;;;;;;;;11.29;58.47;99643.58;1770706;78;21637;-53
2021/06/02 02:08:44;;;;;;;0.70;0.30;;;;;;;11.28;58.70;99638.66;1769971;78;20250;-55
2021/06/02 02:11:36;;;;;;;1.50;0.40;;;;;;;11.27;58.73;99640.08;1768873;78;21092;-53
2021/06/02 02:14:39;;;;;;;3.80;0.40;;;;;;;11.28;58.80;99645.39;1770341;78;21033;-53
2021/06/02 02:17:39;;;;;;;0.60;0.47;;;;;;;11.28;58.70;99645.39;1770177;78;21142;-54
2021/06/02 02:20:35;;;;;;;0.60;0.40;;;;;;;11.26;58.83;99639.20;1765248;78;21590;-53
2021/06/02 02:23:36;;;;;;;4.23;0.50;;;;;;;11.25;58.99;99644.20;1768542;78;21052;-50
2021/06/02 02:26:29;;;;;;;1.80;0.40;;;;;;;11.23;58.95;99635.31;1769691;78;21906;-52
2021/06/02 02:29:25;;;;;;;2.40;0.40;;;;;;;11.22;58.88;99643.03;1766830;78;21376;-50
2021/06/02 02:32:16;;;;;;;0.60;0.40;;;;;;;11.20;58.90;99644.05;1768026;78;21516;-49
2021/06/02 02:35:03;;;;;;;0.83;0.40;;;;;;;11.19;59.02;99645.88;1769871;78;20866;-51
2021/06/02 02:37:49;;;;;;;1.20;0.40;;;;;;;11.19;59.32;99647.22;1770953;78;20949;-50
2021/06/02 02:40:35;;;;;;;0.57;0.40;;;;;;;11.20;59.30;99644.92;1767061;78;21023;-54
2021/06/02 02:43:15;;;;;;;0.60;0.40;;;;;;;11.22;59.50;99651.59;1725333;78;21108;-51
2021/06/02 02:46:03;;;;;;;4.93;0.47;;;;;;;11.21;59.30;99656.10;1768600;78;20957;-55
2021/06/02 02:48:44;;;;;;;7.80;0.40;;;;;;;11.21;59.29;99654.76;1775566;78;21427;-49
2021/06/02 02:51:30;;;;;;;2.10;0.40;;;;;;;11.20;59.43;99658.40;1773254;78;20952;-53
2021/06/02 02:55:33;;;;;;;0.63;0.40;;;;;;;11.23;59.50;99659.56;1774996;78;23315;-52
2021/06/02 02:58:39;;;;;;;0.50;0.30;;;;;;;11.20;59.70;99660.22;1739513;80;21551;-52
2021/06/02 03:01:22;;;;;;;5.27;0.50;;;;;;;11.20;59.59;99671.88;1741254;80;21597;-52
2021/06/02 03:03:55;;;;;;;1.77;0.40;;;;;;;11.20;59.59;99666.48;1741971;80;21020;-53
2021/06/02 03:06:30;;;;;;;3.52;0.40;;;;;;;11.21;59.67;99673.62;1727702;80;21764;-52
2021/06/02 03:09:19;;;;;;;2.15;0.30;;;;;;;11.22;59.67;99678.06;1743085;80;20927;-55
2021/06/02 03:12:05;;;;;;;1.20;0.40;;;;;;;11.23;59.70;99676.20;1706719;80;21555;-54
2021/06/02 03:15:09;;;;;;;1.70;0.40;;;;;;;11.21;59.97;99672.27;1743418;80;21103;-52
2021/06/02 03:17:45;;;;;;;6.23;0.43;;;;;;;11.21;59.91;99666.01;1737983;80;21025;-49
2021/06/02 03:20:38;;;;;;;2.00;0.40;;;;;;;11.19;59.84;99668.77;1742876;80;21073;-51
2021/06/02 03:23:35;;;;;;;0.60;0.40;;;;;;;11.19;59.92;99678.68;1703029;81;21920;-51
2021/06/02 03:26:11;;;;;;;3.03;0.40;;;;;;;11.16;59.75;99666.70;1701052;81;21062;-54
2021/06/02 03:28:55;;;;;;;1.67;0.40;;;;;;;11.14;59.87;99673.55;1699010;81;22175;-54
2021/06/02 03:31:31;;;;;;;6.80;0.40;;;;;;;11.17;60.16;99668.45;1671399;83;21081;-53
2021/06/02 03:34:22;;;;;;;3.55;0.40;;;;;;;11.18;60.12;99674.23;1692410;82;21332;-50
2021/06/02 03:37:43;;;;;;;0.97;0.43;;;;;;;11.20;60.44;99679.08;1693203;82;21184;-52
2021/06/02 03:40:32;;;;;;;1.27;0.40;;;;;;;11.19;60.18;99672.81;1695543;82;21567;-51
2021/06/02 03:43:27;;;;;;;0.63;0.40;;;;;;;11.18;60.31;99679.63;1666918;83;21225;-48
2021/06/02 03:46:25;;;;;;;0.60;0.40;;;;;;;11.18;60.29;99689.93;1684701;82;21064;-52
2021/06/02 03:49:14;;;;;;;1.53;0.50;;;;;;;11.17;60.49;99688.19;1674636;83;21260;-48
2021/06/02 03:51:56;;;;;;;2.43;0.60;;;;;;;11.16;60.56;99678.35;1693793;82;21135;-54
2021/06/02 03:54:48;;;;;;;0.30;0.30;;;;;;;11.17;60.63;99683.27;1674728;82;21415;-49
2021/06/02 03:57:38;;;;;;;0.90;0.40;;;;;;;11.17;60.75;99686.84;1670672;83;21195;-52
2021/06/02 04:00:12;;;;;;;2.37;0.50;;;;;;;11.19;60.80;99675.52;1675011;83;21038;-52
2021/06/02 04:03:06;;;;;;;0.60;0.40;;;;;;;11.24;60.85;99672.09;1726355;80;21674;-51
2021/06/02 04:05:59;;;;;;;4.20;0.40;;;;;;;11.28;60.51;99673.69;1722290;80;21316;-53
2021/06/02 04:08:41;;;;;;;1.10;0.50;;;;;;;11.31;60.66;99664.58;1723232;80;21113;-52
2021/06/02 04:12:01;;;;;;;0.85;0.53;;;;;;;11.35;60.62;99653.55;1696621;80;21204;-54
2021/06/02 04:14:35;;;;;;;1.10;0.80;;;;;;;11.39;60.57;99662.35;1721684;80;21025;-53
2021/06/02 04:17:02;;;;;;;0.80;0.53;;;;;;;11.40;60.41;99664.06;1723976;80;21060;-52
2021/06/02 04:19:31;;;;;;;1.57;0.60;;;;;;;11.38;60.26;99660.13;1717326;80;21194;-49
2021/06/02 04:22:07;;;;;;;0.90;0.60;;;;;;;11.37;60.37;99666.95;1720118;80;21068;-49
2021/06/02 04:24:37;;;;;;;3.23;0.50;;;;;;;11.37;60.68;99666.47;1719403;80;21085;-50
2021/06/02 04:27:04;;;;;;;2.67;0.50;;;;;;;11.36;60.80;99670.11;1721819;80;21068;-53
2021/06/02 04:29:31;;;;;;;0.90;0.60;;;;;;;11.36;60.83;99663.38;1723794;80;21085;-49
2021/06/02 04:32:07;;;;;;;1.70;0.50;;;;;;;11.36;60.75;99663.38;1726112;80;21081;-53
2021/06/02 04:34:34;;;;;;;7.90;0.57;;;;;;;11.35;61.19;99664.33;1723953;80;21540;-50
2021/06/02 04:37:03;;;;;;;2.27;0.70;;;;;;;11.36;61.00;99663.38;1720372;80;21801;-55
2021/06/02 04:39:32;;;;;;;5.17;1.00;;;;;;;11.37;60.80;99657.04;1725042;80;21041;-52
2021/06/02 04:42:00;;;;;;;1.60;0.70;;;;;;;11.38;60.93;99653.39;1724260;80;21002;-54
2021/06/02 04:44:28;;;;;;;1.23;0.80;;;;;;;11.39;60.86;99661.00;1724027;80;20896;-51
2021/06/02 04:46:55;;;;;;;2.83;0.70;;;;;;;11.40;61.02;99660.02;1671894;83;20958;-54
2021/06/02 04:49:45;;;;;;;5.80;0.87;;;;;;;11.42;60.97;99665.34;1673513;83;21051;-52
2021/06/02 04:52:35;;;;;;;2.60;0.60;;;;;;;11.46;61.12;99666.46;1721678;80;21354;-55
2021/06/02 04:55:26;;;;;;;2.63;1.23;;;;;;;11.50;60.91;99664.45;1695852;80;21108;-49
2021/06/02 04:58:30;;;;;;;6.83;0.50;;;;;;;11.55;61.12;99671.84;1722394;80;21058;-49
2021/06/02 05:01:38;;;;;;;4.97;0.60;;;;;;;11.61;61.10;99674.20;1721990;80;21054;-52
2021/06/02 05:04:27;;;;;;;0.80;0.40;;;;;;;11.64;61.03;99675.39;1715726;80;21323;-49
2021/06/02 05:07:27;;;;;;;2.58;0.40;;;;;;;11.67;60.62;99672.03;1718159;80;21318;-50
2021/06/02 05:10:34;;;;;;;2.30;0.60;;;;;;;11.69;60.60;99682.73;1719971;80;21126;-54
2021/06/02 05:13:32;;;;;;;2.25;0.40;;;;;;;11.68;60.92;99676.95;1719968;80;21086;-49
2021/06/02 05:16:41;;;;;;;2.43;0.57;;;;;;;11.68;61.30;99671.55;1718024;80;21069;-50
2021/06/02 05:22:50;;;;;;;5.80;0.37;;;;;;;11.66;61.85;99666.72;1720792;80;21023;-50
2021/06/02 05:25:36;;;;;;;;;;;;;;;11.68;62.21;99667.04;1718484;80;22230;-55
2021/06/02 05:28:44;;;;;;;1.62;0.47;;;;;;;11.72;62.27;99673.15;1717603;80;20195;-52
2021/06/02 05:31:29;;;;;;;1.27;0.50;;;;;;;11.72;62.43;99679.89;1723197;80;21140;-52
2021/06/02 05:34:47;;;;;;;3.02;0.47;;;;;;;11.76;62.88;99686.88;1719567;80;21107;-49
2021/06/02 05:37:56;;;;;;;3.92;0.50;;;;;;;11.78;62.80;99683.63;1717196;80;21106;-50
2021/06/02 05:40:49;;;;;;;0.80;0.50;;;;;;;11.79;62.91;99680.45;1717732;80;21072;-50
2021/06/02 05:43:52;;;;;;;4.05;0.60;;;;;;;11.82;63.53;99686.57;1716197;81;21504;-50
2021/06/02 05:47:07;;;;;;;4.35;0.60;;;;;;;11.87;63.60;99679.09;1717774;80;21057;-55
2021/06/02 05:49:50;;;;;;;1.82;0.50;;;;;;;11.94;63.72;99686.36;1719217;80;21196;-52
2021/06/02 05:52:49;;;;;;;2.60;0.50;;;;;;;12.02;63.64;99684.98;1720343;80;21488;-54
2021/06/02 05:55:33;;;;;;;1.37;0.60;;;;;;;12.11;62.99;99684.95;1725294;80;21386;-51
2021/06/02 05:58:16;;;;;;;2.62;0.50;;;;;;;12.21;62.68;99694.76;1729698;80;21081;-51
2021/06/02 06:01:19;;;;;;;1.92;0.88;;;;;;;12.27;61.34;99679.09;1723862;80;21353;-52
2021/06/02 06:04:03;;;;;;;1.25;0.50;;;;;;;12.31;61.34;99682.02;1725418;80;21747;-54
2021/06/02 06:07:18;;;;;;;1.27;0.42;;;;;;;12.39;61.52;99689.69;1724549;80;21013;-48
2021/06/02 06:10:26;;;;;;;1.30;0.60;;;;;;;12.47;61.18;99678.84;1736890;80;21107;-51
2021/06/02 06:13:40;;;;;;;5.08;0.50;;;;;;;12.58;60.44;99689.03;1730385;80;21075;-52
2021/06/02 06:16:37;;;;;;;1.00;0.40;;;;;;;12.66;59.93;99686.77;1730385;80;21052;-51
2021/06/02 06:19:32;;;;;;;1.60;0.40;;;;;;;12.71;58.93;99684.66;1731317;80;21582;-50
2021/06/02 06:22:13;;;;;;;2.30;0.40;;;;;;;12.73;58.51;99684.09;1733861;80;21663;-51
2021/06/02 06:25:06;;;;;;;3.40;0.50;;;;;;;12.74;59.08;99684.97;1734160;80;21021;-52
2021/06/02 06:27:41;;;;;;;0.68;0.40;;;;;;;12.75;58.92;99686.70;1725998;80;21034;-54
2021/06/02 06:30:13;;;;;;;2.67;0.70;;;;;;;12.79;58.73;99692.30;1725157;80;21002;-53
2021/06/02 06:32:41;;;;;;;1.90;0.70;;;;;;;12.81;58.89;99686.34;1725776;80;21472;-51
2021/06/02 06:35:09;;;;;;;1.50;0.50;;;;;;;12.81;58.06;99683.16;1733079;80;20941;-51
2021/06/02 06:37:53;;;;;;;6.85;1.37;;;;;;;12.78;58.09;99686.03;1728604;80;20982;-50
2021/06/02 06:40:28;;;;;;;1.00;0.40;;;;;;;12.78;59.08;99681.98;1726536;80;21591;-53
2021/06/02 06:42:56;;;;;;;2.40;0.50;;;;;;;12.75;57.69;99688.94;1726309;80;21172;-54
2021/06/02 06:45:32;;;;;;;2.72;0.47;;;;;;;12.72;58.42;99684.17;1727214;80;21086;-51
2021/06/02 06:48:16;;;;;;;3.40;0.40;;;;;;;12.71;58.56;99690.53;1729271;80;20911;-54
2021/06/02 06:50:46;;;;;;;9.10;0.40;;;;;;;12.69;58.66;99686.56;1728395;80;20946;-53
2021/06/02 06:53:12;;;;;;;0.62;0.37;;;;;;;12.70;59.20;99684.73;1728848;80;21490;-49
2021/06/02 06:55:39;;;;;;;1.22;0.30;;;;;;;12.72;59.03;99679.64;1724770;80;21678;-50
2021/06/02 06:58:05;;;;;;;1.47;0.40;;;;;;;12.75;58.74;99674.55;1690444;82;21137;-51
2021/06/02 07:00:32;;;;;;;1.95;0.40;;;;;;;12.77;58.90;99676.19;1730769;80;21018;-50
2021/06/02 07:02:58;;;;;;;6.25;0.60;;;;;;;12.80;58.33;99670.61;1728384;80;21054;-52
2021/06/02 07:05:26;;;;;;;4.37;0.50;;;;;;;12.85;58.77;99671.68;1726090;80;21062;-53
2021/06/02 07:07:52;;;;;;;0.62;0.50;;;;;;;12.91;58.58;99671.34;1730174;80;21097;-55
2021/06/02 07:10:20;;;;;;;1.75;0.30;;;;;;;12.96;58.17;99665.65;1735550;80;21041;-53
2021/06/02 07:12:46;;;;;;;4.85;0.40;;;;;;;13.02;58.42;99665.28;1729894;80;21044;-55
2021/06/02 07:15:15;;;;;;;2.52;0.40;;;;;;;13.09;57.80;99654.52;1728973;80;21049;-52
2021/06/02 07:17:47;;;;;;;9.70;0.47;;;;;;;13.15;56.92;99654.17;1722945;80;21065;-53
2021/06/02 07:20:21;;;;;;;0.60;0.30;;;;;;;13.21;57.08;99653.80;1729066;80;20895;-50
2021/06/02 07:22:49;;;;;;;1.90;0.30;;;;;;;13.29;57.05;99655.55;1736995;80;21883;-50
2021/06/02 07:25:17;;;;;;;1.50;0.30;;;;;;;13.38;57.50;99658.17;1729800;80;20955;-48
2021/06/02 07:27:45;;;;;;;1.02;0.30;;;;;;;13.44;56.74;99660.02;1734835;80;22187;-51
2021/06/02 07:30:13;;;;;;;2.37;0.40;;;;;;;13.51;56.70;99661.41;1726630;80;21434;-49
2021/06/02 07:32:40;;;;;;;2.42;0.40;;;;;;;13.58;56.62;99661.89;1728408;80;21125;-51
2021/06/02 07:35:07;;;;;;;1.77;0.33;;;;;;;13.63;56.39;99657.92;1727169;80;21655;-51
2021/06/02 07:37:34;;;;;;;1.85;0.40;;;;;;;13.70;55.72;99656.17;1735730;80;20903;-49
2021/06/02 07:40:00;;;;;;;0.60;0.30;;;;;;;13.77;55.37;99653.50;1726735;80;21018;-52
2021/06/02 07:42:27;;;;;;;2.05;0.40;;;;;;;13.84;55.80;99665.67;1724343;80;21077;-56
2021/06/02 07:44:54;;;;;;;0.62;0.30;;;;;;;13.94;55.60;99653.31;1729664;80;20942;-50
2021/06/02 07:47:22;;;;;;;4.37;0.42;;;;;;;14.02;54.76;99660.45;1728686;80;21421;-51
2021/06/02 07:49:48;;;;;;;0.33;0.30;;;;;;;14.10;54.82;99660.83;1730419;80;21492;-54
2021/06/02 07:52:14;;;;;;;3.40;0.35;;;;;;;14.19;55.29;99660.24;1725177;80;20934;-52
2021/06/02 07:54:41;;;;;;;1.62;0.30;;;;;;;14.27;54.56;99661.97;1732120;80;20995;-56
2021/06/02 07:57:08;;;;;;;1.25;0.30;;;;;;;14.30;54.19;99656.34;1719314;81;20932;-52
2021/06/02 07:59:34;;;;;;;1.60;0.40;;;;;;;14.29;53.61;99660.00;1718097;81;21727;-50
2021/06/02 08:02:02;;;;;;;1.82;0.40;;;;;;;14.31;54.39;99664.84;1718892;81;21150;-50
2021/06/02 08:04:30;;;;;;;3.35;0.40;;;;;;;14.34;54.42;99662.44;1719280;81;21406;-51
2021/06/02 08:06:57;;;;;;;2.20;0.40;;;;;;;14.35;53.84;99664.17;1713004;81;20963;-54
2021/06/02 08:09:25;;;;;;;2.55;0.40;;;;;;;14.36;54.52;99657.80;1713155;81;20892;-53
2021/06/02 08:11:51;;;;;;;5.12;0.37;;;;;;;14.40;54.76;99668.83;1712466;81;21118;-55
2021/06/02 08:14:19;;;;;;;2.22;0.42;;;;;;;14.45;54.53;99676.19;1710012;81;21536;-52
2021/06/02 08:16:45;;;;;;;1.30;0.33;;;;;;;14.47;53.85;99666.09;1714292;81;20931;-52
2021/06/02 08:19:12;;;;;;;1.95;0.30;;;;;;;14.48;54.01;99661.07;1714864;81;21006;-52
2021/06/02 08:21:39;;;;;;;4.97;0.30;;;;;;;14.51;53.29;99681.67;1710699;81;20947;-51
2021/06/02 08:24:06;;;;;;;3.33;0.30;;;;;;;14.52;52.88;99654.50;1715021;81;21020;-56
2021/06/02 08:26:38;;;;;;;5.87;0.30;;;;;;;14.55;52.78;99668.30;1720452;81;21655;-50
2021/06/02 08:29:05;;;;;;;4.30;0.25;;;;;;;14.58;53.00;99665.41;1723449;81;21051;-50
2021/06/02 08:31:31;;;;;;;3.40;0.65;;;;;;;14.63;53.01;99667.34;1722917;81;21082;-51
2021/06/02 08:33:59;;;;;;;3.00;0.40;;;;;;;14.69;52.67;99677.28;1722901;81;21093;-52
2021/06/02 08:36:26;;;;;;;0.60;0.20;;;;;;;14.74;52.83;99672.89;1719333;81;21749;-52
2021/06/02 08:38:54;;;;;;;1.02;0.30;;;;;;;14.80;52.04;99677.89;1720164;81;21039;-52
2021/06/02 08:41:20;;;;;;;0.45;0.20;;;;;;;14.80;52.04;99673.83;1724911;81;21423;-50
2021/06/02 08:43:47;;;;;;;2.40;0.30;;;;;;;14.82;51.94;99700.34;1727024;81;21289;-51
2021/06/02 08:46:15;;;;;;;0.70;0.20;;;;;;;14.81;51.78;99689.61;1719715;81;22306;-52
2021/06/02 08:48:49;;;;;;;3.17;0.20;;;;;;;14.81;51.99;99681.48;1722897;81;20973;-51
2021/06/02 08:51:17;;;;;;;8.53;0.33;;;;;;;14.83;51.71;99683.61;1727107;81;21121;-51
2021/06/02 08:53:48;;;;;;;10.65;0.40;;;;;;;14.82;51.26;99673.73;1720598;81;21099;-55
2021/06/02 08:56:15;;;;;;;1.92;0.30;;;;;;;14.77;51.55;99684.90;1717986;81;21074;-51
2021/06/02 08:58:42;;;;;;;0.90;0.30;;;;;;;14.74;51.68;99690.50;1714585;81;21108;-50
2021/06/02 09:01:09;;;;;;;1.95;0.20;;;;;;;14.67;51.25;99688.70;1708437;81;21121;-50
2021/06/02 09:03:37;;;;;;;4.47;0.30;;;;;;;14.64;51.39;99686.66;1682598;83;21078;-52
2021/06/02 09:06:07;;;;;;;1.77;0.30;;;;;;;14.65;52.13;99691.11;1716580;81;21058;-50
2021/06/02 09:08:34;;;;;;;3.72;0.30;;;;;;;14.68;52.69;99674.66;1717044;81;21586;-53
2021/06/02 09:11:14;;;;;;;3.25;0.40;;;;;;;14.76;52.34;99682.67;1708113;82;21642;-53
2021/06/02 09:13:42;;;;;;;1.30;0.30;;;;;;;14.86;52.39;99678.87;1716916;81;21723;-50
2021/06/02 09:16:28;;;;;;;6.65;0.30;;;;;;;14.90;51.93;99683.58;1718450;81;21062;-51
2021/06/02 09:19:07;;;;;;;6.67;0.30;;;;;;;14.91;51.29;99682.13;1716974;81;21031;-51
2021/06/02 09:21:38;;;;;;;1.02;0.23;;;;;;;14.93;51.78;99671.19;1711036;81;21050;-56
2021/06/02 09:24:06;;;;;;;1.37;0.30;;;;;;;14.93;51.96;99674.77;1712688;81;21102;-54
2021/06/02 09:26:34;;;;;;;6.28;0.30;;;;;;;14.95;51.36;99678.25;1709529;81;21584;-54
2021/06/02 09:29:12;;;;;;;4.28;0.30;;;;;;;14.95;52.05;99685.03;1710294;81;21064;-51
2021/06/02 09:31:40;;;;;;;0.80;0.20;;;;;;;14.96;51.87;99679.13;1711885;81;21122;-51
2021/06/02 09:34:25;;;;;;;2.80;0.30;;;;;;;14.98;52.42;99683.92;1709501;81;21121;-51
2021/06/02 09:36:54;;;;;;;1.07;0.30;;;;;;;15.02;52.32;99689.54;1714262;81;20960;-52
2021/06/02 09:39:22;;;;;;;9.23;0.40;;;;;;;15.05;51.43;99685.28;1714749;81;21137;-53
2021/06/02 09:41:54;;;;;;;1.37;0.20;;;;;;;15.07;51.57;99705.86;1708710;81;21857;-51
2021/06/02 09:44:23;;;;;;;2.25;0.17;;;;;;;15.08;51.13;99695.89;1715354;81;21092;-50
2021/06/02 09:47:05;;;;;;;8.25;0.50;;;;;;;15.10;51.60;99698.89;1715926;81;20995;-50
2021/06/02 09:49:55;;;;;;;0.60;0.20;;;;;;;15.13;50.63;99698.70;1718315;81;21601;-50
2021/06/02 09:52:49;;;;;;;2.10;0.50;;;;;;;15.12;51.06;99724.06;1718752;81;21215;-55
2021/06/02 09:55:25;;;;;;;2.85;0.30;;;;;;;15.05;50.11;99704.26;1722924;81;21097;-52
2021/06/02 09:58:09;;;;;;;6.53;1.20;;;;;;;14.97;50.33;99722.88;1715475;80;21069;-51
2021/06/02 10:00:44;;;;;;;0.98;0.30;;;;;;;14.89;50.96;99708.45;1720766;80;21132;-51
2021/06/02 10:03:18;;;;;;;1.72;0.30;;;;;;;14.83;51.35;99712.93;1722052;80;21564;-52
2021/06/02 10:05:50;;;;;;;4.03;0.23;;;;;;;14.80;51.92;99710.41;1667859;84;21121;-53
2021/06/02 10:08:29;;;;;;;3.20;0.40;;;;;;;14.78;51.97;99696.61;1722203;80;20852;-52
2021/06/02 10:10:58;;;;;;;4.50;0.30;;;;;;;14.76;51.75;99704.83;1721032;80;21587;-54
2021/06/02 10:13:26;;;;;;;1.35;0.35;;;;;;;14.74;51.85;99704.92;1691751;80;21516;-56
2021/06/02 10:15:54;;;;;;;1.47;0.40;;;;;;;14.75;52.23;99711.22;1697383;82;21109;-52
2021/06/02 10:18:37;;;;;;;9.43;0.40;;;;;;;14.74;52.00;99721.66;1720839;80;21882;-55
2021/06/02 10:21:07;;;;;;;3.35;0.30;;;;;;;14.74;52.40;99713.53;1721721;80;21028;-50
2021/06/02 10:23:43;;;;;;;2.15;0.30;;;;;;;14.76;52.13;99712.95;1725555;80;21725;-52
2021/06/02 10:26:13;;;;;;;1.12;0.30;;;;;;;14.79;51.79;99716.83;1716592;80;21046;-53
2021/06/02 10:28:42;;;;;;;2.20;0.30;;;;;;;14.82;51.97;99712.55;1722459;80;20989;-51
2021/06/02 10:31:10;;;;;;;2.50;0.30;;;;;;;14.85;51.68;99718.25;1720843;80;21167;-52
2021/06/02 10:33:36;;;;;;;2.20;0.40;;;;;;;14.89;51.36;99721.13;1721658;80;21480;-52
2021/06/02 10:36:05;;;;;;;0.68;0.30;;;;;;;14.92;51.95;99710.09;1724868;80;22538;-51
2021/06/02 10:38:46;;;;;;;2.75;0.65;;;;;;;14.96;51.18;99717.94;1725396;80;20986;-52
2021/06/02 10:41:17;;;;;;;6.70;1.00;;;;;;;15.03;51.44;99713.84;1723058;80;21364;-56
2021/06/02 10:43:43;;;;;;;14.90;0.62;;;;;;;15.11;51.81;99718.74;1729623;80;21271;-50
2021/06/02 10:46:14;;;;;;;0.70;0.40;;;;;;;15.19;51.21;99719.58;1723239;80;20971;-53
2021/06/02 10:48:53;;;;;;;1.12;0.33;;;;;;;15.25;51.05;99728.64;1726422;80;20926;-52
2021/06/02 10:51:32;;;;;;;3.45;0.60;;;;;;;15.30;51.16;99713.82;1724740;80;21050;-55
2021/06/02 10:54:12;;;;;;;2.10;0.40;;;;;;;15.36;51.09;99724.24;1724214;80;20923;-53
2021/06/02 10:56:42;;;;;;;2.58;0.30;;;;;;;15.42;50.88;99721.58;1717563;80;20907;-54
2021/06/02 10:59:35;;;;;;;9.25;0.40;;;;;;;15.48;50.52;99717.12;1714751;81;21374;-52
2021/06/02 11:02:15;;;;;;;3.50;0.35;;;;;;;15.50;50.22;99725.52;1716099;81;21449;-53
2021/06/02 11:05:02;;;;;;;5.92;0.70;;;;;;;15.56;49.59;99717.98;1716115;81;20948;-56
2021/06/02 11:07:32;;;;;;;1.95;0.30;;;;;;;15.60;50.29;99723.55;1718257;81;20971;-54
2021/06/02 11:10:09;;;;;;;4.00;0.30;;;;;;;15.63;49.96;99728.78;1717060;81;20955;-49
2021/06/02 11:12:52;;;;;;;1.65;0.40;;;;;;;15.66;48.79;99727.19;1714508;81;21137;-54
2021/06/02 11:15:36;;;;;;;;;;;;;;;15.67;49.56;99735.23;1716890;81;20990;-51
2021/06/02 11:18:18;;;;;;;2.55;0.40;;;;;;;15.71;49.20;99727.76;1714871;81;20206;-51
2021/06/02 11:20:55;;;;;;;1.45;0.35;;;;;;;15.72;48.87;99733.57;1711129;81;21135;-55
2021/06/02 11:23:32;;;;;;;2.90;0.40;;;;;;;15.71;48.61;99720.98;1721046;81;22140;-51
2021/06/02 11:26:24;;;;;;;3.08;0.60;;;;;;;15.68;48.19;99723.41;1721720;81;20986;-53
2021/06/02 11:28:53;;;;;;;2.62;0.30;;;;;;;15.67;48.27;99726.22;1712951;81;21046;-50
2021/06/02 11:31:31;;;;;;;2.42;0.45;;;;;;;15.66;48.08;99721.28;1730401;81;21089;-50
2021/06/02 11:34:33;;;;;;;1.75;0.30;;;;;;;15.66;47.60;99721.77;1725690;81;21118;-54
2021/06/02 11:37:04;;;;;;;2.27;0.30;;;;;;;15.66;47.92;99723.99;1728126;81;21792;-50
2021/06/02 11:39:31;;;;;;;1.37;0.30;;;;;;;15.67;48.37;99729.80;1720266;81;21074;-51
2021/06/02 11:41:58;;;;;;;4.17;0.30;;;;;;;15.68;48.58;99738.33;1720324;81;21428;-54
2021/06/02 11:44:30;;;;;;;1.25;0.30;;;;;;;15.69;48.38;99725.14;1724193;81;21071;-50
2021/06/02 11:46:56;;;;;;;2.27;0.30;;;;;;;15.70;48.32;99737.74;1718792;81;21195;-53
2021/06/02 11:49:28;;;;;;;0.40;0.30;;;;;;;15.71;48.48;99731.83;1715935;81;22032;-51
2021/06/02 11:51:57;;;;;;;2.70;0.30;;;;;;;15.73;47.94;99729.89;1717301;81;21180;-51
2021/06/02 11:54:25;;;;;;;3.42;0.25;;;;;;;15.74;49.09;99729.75;1666593;84;21085;-51
2021/06/02 11:56:51;;;;;;;0.98;0.30;;;;;;;15.77;48.70;99718.69;1683678;83;21169;-52
2021/06/02 11:59:20;;;;;;;4.78;0.30;;;;;;;15.83;48.77;99724.17;1676586;83;21125;-51
2021/06/02 12:01:46;;;;;;;4.55;0.30;;;;;;;15.87;49.05;99727.06;1670550;83;21686;-53
2021/06/02 12:04:13;;;;;;;2.10;0.30;;;;;;;15.91;48.82;99722.30;1686740;83;21140;-51
2021/06/02 12:06:40;;;;;;;1.75;0.20;;;;;;;15.93;47.99;99721.19;1605957;84;21058;-51
2021/06/02 12:09:10;;;;;;;3.67;0.28;;;;;;;15.96;48.14;99720.98;1664872;83;21117;-53
2021/06/02 12:11:39;;;;;;;1.67;0.33;;;;;;;15.99;47.99;99723.98;1675660;83;20970;-50
2021/06/02 12:14:19;;;;;;;0.45;0.20;;;;;;;16.01;48.04;99720.64;1679779;83;21134;-54
2021/06/02 12:16:46;;;;;;;2.22;0.33;;;;;;;16.04;48.60;99724.03;1662175;84;21038;-52
2021/06/02 12:19:12;;;;;;;4.40;0.30;;;;;;;16.07;47.97;99721.11;1687725;83;21057;-51
2021/06/02 12:21:41;;;;;;;1.07;0.30;;;;;;;16.10;48.40;99724.94;1678270;83;21118;-50
2021/06/02 12:24:09;;;;;;;2.47;0.40;;;;;;;16.11;48.18;99730.75;1681890;83;21603;-52
2021/06/02 12:26:40;;;;;;;4.67;0.30;;;;;;;16.14;48.62;99727.83;1652575;84;21145;-51
2021/06/02 12:29:13;;;;;;;6.35;0.50;;;;;;;16.18;48.69;99720.31;1677662;83;21168;-51